sensor_id;sensor_type;location;lat;lon;timestamp;temperature;humidity
8463;DHT22;4268;52.506;13.462;2023-01-19T00:01:52;-0.20;99.90
8463;DHT22;4268;52.506;13.462;2023-01-19T00:04:18;-0.10;99.90
8463;DHT22;4268;52.506;13.462;2023-01-19T00:06:43;-0.10;99.90
8463;DHT22;4268;52.506;13.462;2023-01-19T00:09:09;-0.10;99.90
8463;DHT22;4268;52.506;13.462;2023-01-19T00:11:34;-0.10;99.90
8463;DHT22;4268;52.506;13.462;2023-01-19T00:14:00;-0.10;99.90
8463;DHT22;4268;52.506;13.462;2023-01-19T00:16:25;-0.10;99.90
8463;DHT22;4268;52.506;13.462;2023-01-19T00:18:51;-0.10;99.90
8463;DHT22;4268;52.506;13.462;2023-01-19T00:21:17;-0.10;99.90
8463;DHT22;4268;52.506;13.462;2023-01-19T00:23:43;-0.20;99.90
8463;DHT22;4268;52.506;13.462;2023-01-19T00:26:15;-0.20;99.90
8463;DHT22;4268;52.506;13.462;2023-01-19T00:28:42;-0.20;99.90
8463;DHT22;4268;52.506;13.462;2023-01-19T00:31:07;-0.20;99.90
8463;DHT22;4268;52.506;13.462;2023-01-19T00:33:33;-0.30;99.90
8463;DHT22;4268;52.506;13.462;2023-01-19T00:35:58;-0.30;99.90
8463;DHT22;4268;52.506;13.462;2023-01-19T00:38:24;-0.40;99.90
8463;DHT22;4268;52.506;13.462;2023-01-19T00:40:49;-0.30;99.90
8463;DHT22;4268;52.506;13.462;2023-01-19T00:43:15;-0.30;99.90
8463;DHT22;4268;52.506;13.462;2023-01-19T00:45:40;-0.30;99.90
8463;DHT22;4268;52.506;13.462;2023-01-19T00:48:06;-0.40;99.90
8463;DHT22;4268;52.506;13.462;2023-01-19T00:50:32;-0.40;99.90
8463;DHT22;4268;52.506;13.462;2023-01-19T00:52:59;-0.40;99.90
8463;DHT22;4268;52.506;13.462;2023-01-19T00:55:29;-0.40;99.90
8463;DHT22;4268;52.506;13.462;2023-01-19T00:57:55;-0.40;99.90
8463;DHT22;4268;52.506;13.462;2023-01-19T01:00:20;-0.40;99.90
8463;DHT22;4268;52.506;13.462;2023-01-19T01:02:48;-0.40;99.90
8463;DHT22;4268;52.506;13.462;2023-01-19T01:05:14;-0.30;99.90
8463;DHT22;4268;52.506;13.462;2023-01-19T01:07:40;-0.40;99.90
8463;DHT22;4268;52.506;13.462;2023-01-19T01:10:12;-0.40;99.90
8463;DHT22;4268;52.506;13.462;2023-01-19T01:12:38;-0.40;99.90
8463;DHT22;4268;52.506;13.462;2023-01-19T01:15:05;-0.40;99.90
8463;DHT22;4268;52.506;13.462;2023-01-19T01:17:32;0.60;99.90
8463;DHT22;4268;52.506;13.462;2023-01-19T01:19:57;-0.50;99.90
8463;DHT22;4268;52.506;13.462;2023-01-19T01:22:23;-0.50;99.90
8463;DHT22;4268;52.506;13.462;2023-01-19T01:24:48;-0.50;99.90
8463;DHT22;4268;52.506;13.462;2023-01-19T01:27:14;-0.60;99.90
8463;DHT22;4268;52.506;13.462;2023-01-19T01:29:39;-0.60;99.90
8463;DHT22;4268;52.506;13.462;2023-01-19T01:32:11;-0.70;99.90
8463;DHT22;4268;52.506;13.462;2023-01-19T01:34:37;-0.70;99.90
8463;DHT22;4268;52.506;13.462;2023-01-19T01:37:02;-0.80;99.90
8463;DHT22;4268;52.506;13.462;2023-01-19T01:39:28;-0.80;99.90
8463;DHT22;4268;52.506;13.462;2023-01-19T01:41:53;-0.90;99.90
8463;DHT22;4268;52.506;13.462;2023-01-19T01:44:46;-0.90;99.90
8463;DHT22;4268;52.506;13.462;2023-01-19T01:47:40;-0.90;99.90
8463;DHT22;4268;52.506;13.462;2023-01-19T01:50:20;-1.00;99.90
8463;DHT22;4268;52.506;13.462;2023-01-19T01:52:57;-1.00;99.90
8463;DHT22;4268;52.506;13.462;2023-01-19T01:55:24;-1.00;99.90
8463;DHT22;4268;52.506;13.462;2023-01-19T01:57:52;-1.00;99.90
8463;DHT22;4268;52.506;13.462;2023-01-19T02:00:19;-1.00;99.90
8463;DHT22;4268;52.506;13.462;2023-01-19T02:02:44;-1.10;99.90
8463;DHT22;4268;52.506;13.462;2023-01-19T02:08:09;-1.20;99.90
8463;DHT22;4268;52.506;13.462;2023-01-19T02:10:55;-1.20;99.90
8463;DHT22;4268;52.506;13.462;2023-01-19T02:13:40;-1.20;99.90
8463;DHT22;4268;52.506;13.462;2023-01-19T02:16:11;-1.20;99.90
8463;DHT22;4268;52.506;13.462;2023-01-19T02:18:37;-1.20;99.90
8463;DHT22;4268;52.506;13.462;2023-01-19T02:21:22;-1.20;99.90
8463;DHT22;4268;52.506;13.462;2023-01-19T02:23:59;-1.30;99.90
8463;DHT22;4268;52.506;13.462;2023-01-19T02:26:28;-1.30;99.90
8463;DHT22;4268;52.506;13.462;2023-01-19T02:28:58;-1.40;99.90
8463;DHT22;4268;52.506;13.462;2023-01-19T02:31:24;-1.40;99.90
8463;DHT22;4268;52.506;13.462;2023-01-19T02:33:50;-1.40;99.90
8463;DHT22;4268;52.506;13.462;2023-01-19T02:36:20;-1.40;99.90
8463;DHT22;4268;52.506;13.462;2023-01-19T02:38:47;-1.50;99.90
8463;DHT22;4268;52.506;13.462;2023-01-19T02:41:18;-1.40;99.90
8463;DHT22;4268;52.506;13.462;2023-01-19T02:43:44;-1.40;99.90
8463;DHT22;4268;52.506;13.462;2023-01-19T02:46:12;-1.40;99.90
8463;DHT22;4268;52.506;13.462;2023-01-19T02:48:38;-1.30;99.90
8463;DHT22;4268;52.506;13.462;2023-01-19T02:51:14;-1.30;99.90
8463;DHT22;4268;52.506;13.462;2023-01-19T02:56:34;-1.30;99.90
8463;DHT22;4268;52.506;13.462;2023-01-19T02:59:10;-1.30;99.90
8463;DHT22;4268;52.506;13.462;2023-01-19T03:01:50;-1.30;99.90
8463;DHT22;4268;52.506;13.462;2023-01-19T03:04:27;-1.40;99.90
8463;DHT22;4268;52.506;13.462;2023-01-19T03:07:13;-1.40;99.90
8463;DHT22;4268;52.506;13.462;2023-01-19T03:09:58;-1.50;99.90
8463;DHT22;4268;52.506;13.462;2023-01-19T03:12:48;-1.50;99.90
8463;DHT22;4268;52.506;13.462;2023-01-19T03:15:21;-1.50;99.90
8463;DHT22;4268;52.506;13.462;2023-01-19T03:17:49;-1.60;99.90
8463;DHT22;4268;52.506;13.462;2023-01-19T03:20:21;-1.50;99.90
8463;DHT22;4268;52.506;13.462;2023-01-19T03:22:55;-1.50;99.90
8463;DHT22;4268;52.506;13.462;2023-01-19T03:25:23;-1.50;99.90
8463;DHT22;4268;52.506;13.462;2023-01-19T03:27:52;-1.50;99.90
8463;DHT22;4268;52.506;13.462;2023-01-19T03:30:31;-1.50;99.90
8463;DHT22;4268;52.506;13.462;2023-01-19T03:33:06;-1.50;99.90
8463;DHT22;4268;52.506;13.462;2023-01-19T03:35:34;-1.60;99.90
8463;DHT22;4268;52.506;13.462;2023-01-19T03:38:04;-1.70;99.90
8463;DHT22;4268;52.506;13.462;2023-01-19T03:40:31;-1.70;99.90
8463;DHT22;4268;52.506;13.462;2023-01-19T03:42:59;-1.70;99.90
8463;DHT22;4268;52.506;13.462;2023-01-19T03:45:25;-1.70;99.90
8463;DHT22;4268;52.506;13.462;2023-01-19T03:47:53;-1.80;99.90
8463;DHT22;4268;52.506;13.462;2023-01-19T03:50:29;-1.80;99.90
8463;DHT22;4268;52.506;13.462;2023-01-19T03:53:07;-1.80;99.90
8463;DHT22;4268;52.506;13.462;2023-01-19T03:55:35;-1.90;99.90
8463;DHT22;4268;52.506;13.462;2023-01-19T03:58:01;-2.00;99.90
8463;DHT22;4268;52.506;13.462;2023-01-19T04:00:27;-1.80;99.90
8463;DHT22;4268;52.506;13.462;2023-01-19T04:02:53;-1.90;99.90
8463;DHT22;4268;52.506;13.462;2023-01-19T04:05:20;-1.90;99.90
8463;DHT22;4268;52.506;13.462;2023-01-19T04:07:48;-1.90;99.90
8463;DHT22;4268;52.506;13.462;2023-01-19T04:10:14;-1.90;99.90
8463;DHT22;4268;52.506;13.462;2023-01-19T04:12:40;-1.90;99.90
8463;DHT22;4268;52.506;13.462;2023-01-19T04:15:06;-2.00;99.90
8463;DHT22;4268;52.506;13.462;2023-01-19T04:17:32;-2.00;99.90
8463;DHT22;4268;52.506;13.462;2023-01-19T04:20:00;-2.10;99.90
8463;DHT22;4268;52.506;13.462;2023-01-19T04:22:26;-2.10;99.90
8463;DHT22;4268;52.506;13.462;2023-01-19T04:24:51;-2.10;99.90
8463;DHT22;4268;52.506;13.462;2023-01-19T04:27:18;-2.10;99.90
8463;DHT22;4268;52.506;13.462;2023-01-19T04:29:43;-2.20;99.90
8463;DHT22;4268;52.506;13.462;2023-01-19T04:32:09;-2.10;99.90
8463;DHT22;4268;52.506;13.462;2023-01-19T04:34:35;-2.20;99.90
8463;DHT22;4268;52.506;13.462;2023-01-19T04:37:00;-2.20;99.90
8463;DHT22;4268;52.506;13.462;2023-01-19T04:39:26;-2.20;99.90
8463;DHT22;4268;52.506;13.462;2023-01-19T04:41:52;-2.30;99.90
8463;DHT22;4268;52.506;13.462;2023-01-19T04:44:17;-2.30;99.90
8463;DHT22;4268;52.506;13.462;2023-01-19T04:46:43;-2.30;99.90
8463;DHT22;4268;52.506;13.462;2023-01-19T04:49:09;-2.30;99.90
8463;DHT22;4268;52.506;13.462;2023-01-19T04:51:34;-2.30;99.90
8463;DHT22;4268;52.506;13.462;2023-01-19T04:54:00;-2.40;99.90
8463;DHT22;4268;52.506;13.462;2023-01-19T04:56:26;-2.40;99.90
8463;DHT22;4268;52.506;13.462;2023-01-19T04:58:52;-2.40;99.90
8463;DHT22;4268;52.506;13.462;2023-01-19T05:01:17;-2.40;99.90
8463;DHT22;4268;52.506;13.462;2023-01-19T05:03:43;-2.50;99.90
8463;DHT22;4268;52.506;13.462;2023-01-19T05:06:08;-2.50;99.90
8463;DHT22;4268;52.506;13.462;2023-01-19T05:08:34;-2.50;99.90
8463;DHT22;4268;52.506;13.462;2023-01-19T05:11:00;-2.60;99.90
8463;DHT22;4268;52.506;13.462;2023-01-19T05:13:25;-2.60;99.90
8463;DHT22;4268;52.506;13.462;2023-01-19T05:15:51;-2.60;99.90
8463;DHT22;4268;52.506;13.462;2023-01-19T05:18:16;-2.50;99.90
8463;DHT22;4268;52.506;13.462;2023-01-19T05:20:42;-2.50;99.90
8463;DHT22;4268;52.506;13.462;2023-01-19T05:23:07;-2.60;99.90
8463;DHT22;4268;52.506;13.462;2023-01-19T05:25:33;-2.60;99.90
8463;DHT22;4268;52.506;13.462;2023-01-19T05:27:59;-2.70;99.90
8463;DHT22;4268;52.506;13.462;2023-01-19T05:30:24;-2.60;99.90
8463;DHT22;4268;52.506;13.462;2023-01-19T05:32:50;-2.60;99.90
8463;DHT22;4268;52.506;13.462;2023-01-19T05:35:15;-2.70;99.90
8463;DHT22;4268;52.506;13.462;2023-01-19T05:37:41;-2.70;99.90
8463;DHT22;4268;52.506;13.462;2023-01-19T05:40:08;-2.70;99.90
8463;DHT22;4268;52.506;13.462;2023-01-19T05:42:33;-2.70;99.90
8463;DHT22;4268;52.506;13.462;2023-01-19T05:45:00;-2.70;99.90
8463;DHT22;4268;52.506;13.462;2023-01-19T05:47:28;-2.70;99.90
8463;DHT22;4268;52.506;13.462;2023-01-19T05:49:54;-2.70;99.90
8463;DHT22;4268;52.506;13.462;2023-01-19T05:52:19;-2.80;99.90
8463;DHT22;4268;52.506;13.462;2023-01-19T05:54:46;-2.80;99.90
8463;DHT22;4268;52.506;13.462;2023-01-19T05:57:13;-2.80;99.90
8463;DHT22;4268;52.506;13.462;2023-01-19T05:59:39;-2.80;99.90
8463;DHT22;4268;52.506;13.462;2023-01-19T06:02:04;-2.80;99.90
8463;DHT22;4268;52.506;13.462;2023-01-19T06:04:30;-2.80;99.90
8463;DHT22;4268;52.506;13.462;2023-01-19T06:06:56;-2.80;99.90
8463;DHT22;4268;52.506;13.462;2023-01-19T06:09:21;-2.80;99.90
8463;DHT22;4268;52.506;13.462;2023-01-19T06:11:47;-2.70;99.90
8463;DHT22;4268;52.506;13.462;2023-01-19T06:14:16;-2.80;99.90
8463;DHT22;4268;52.506;13.462;2023-01-19T06:16:41;-2.70;99.90
8463;DHT22;4268;52.506;13.462;2023-01-19T06:19:07;-2.70;99.90
8463;DHT22;4268;52.506;13.462;2023-01-19T06:21:33;-2.70;99.90
8463;DHT22;4268;52.506;13.462;2023-01-19T06:23:58;-2.80;99.90
8463;DHT22;4268;52.506;13.462;2023-01-19T06:26:24;-2.70;99.90
8463;DHT22;4268;52.506;13.462;2023-01-19T06:28:50;-2.70;99.90
8463;DHT22;4268;52.506;13.462;2023-01-19T06:31:16;-2.70;99.90
8463;DHT22;4268;52.506;13.462;2023-01-19T06:33:42;-2.70;99.90
8463;DHT22;4268;52.506;13.462;2023-01-19T06:36:08;-2.70;99.90
8463;DHT22;4268;52.506;13.462;2023-01-19T06:38:33;-2.70;99.90
8463;DHT22;4268;52.506;13.462;2023-01-19T06:40:59;-2.70;99.90
8463;DHT22;4268;52.506;13.462;2023-01-19T06:43:27;-2.70;99.90
8463;DHT22;4268;52.506;13.462;2023-01-19T06:45:53;-2.60;99.90
8463;DHT22;4268;52.506;13.462;2023-01-19T06:48:19;-2.60;99.90
8463;DHT22;4268;52.506;13.462;2023-01-19T06:50:46;-2.60;99.90
8463;DHT22;4268;52.506;13.462;2023-01-19T06:53:12;-2.60;99.90
8463;DHT22;4268;52.506;13.462;2023-01-19T06:55:37;-2.60;99.90
8463;DHT22;4268;52.506;13.462;2023-01-19T06:58:03;-2.60;99.90
8463;DHT22;4268;52.506;13.462;2023-01-19T07:00:29;-2.60;99.90
8463;DHT22;4268;52.506;13.462;2023-01-19T07:02:55;-2.60;99.90
8463;DHT22;4268;52.506;13.462;2023-01-19T07:05:21;-2.60;99.90
8463;DHT22;4268;52.506;13.462;2023-01-19T07:07:54;-2.60;99.90
8463;DHT22;4268;52.506;13.462;2023-01-19T07:10:20;-2.60;99.90
8463;DHT22;4268;52.506;13.462;2023-01-19T07:12:46;-2.60;99.90
8463;DHT22;4268;52.506;13.462;2023-01-19T07:15:13;-2.60;99.90
8463;DHT22;4268;52.506;13.462;2023-01-19T07:17:39;-2.60;99.90
8463;DHT22;4268;52.506;13.462;2023-01-19T07:20:09;-2.60;99.90
8463;DHT22;4268;52.506;13.462;2023-01-19T07:22:35;-2.60;99.90
8463;DHT22;4268;52.506;13.462;2023-01-19T07:25:01;-2.60;99.90
8463;DHT22;4268;52.506;13.462;2023-01-19T07:27:26;-2.60;99.90
8463;DHT22;4268;52.506;13.462;2023-01-19T07:29:53;-2.50;99.90
8463;DHT22;4268;52.506;13.462;2023-01-19T07:32:18;-2.20;99.90
8463;DHT22;4268;52.506;13.462;2023-01-19T07:34:44;-2.00;99.90
8463;DHT22;4268;52.506;13.462;2023-01-19T07:37:10;-2.10;99.90
8463;DHT22;4268;52.506;13.462;2023-01-19T07:39:35;-2.20;99.90
8463;DHT22;4268;52.506;13.462;2023-01-19T07:42:01;-2.30;99.90
8463;DHT22;4268;52.506;13.462;2023-01-19T07:44:26;-2.40;99.90
8463;DHT22;4268;52.506;13.462;2023-01-19T07:46:52;-2.40;99.90
8463;DHT22;4268;52.506;13.462;2023-01-19T07:49:17;-2.40;99.90
8463;DHT22;4268;52.506;13.462;2023-01-19T07:51:45;-2.30;99.90
8463;DHT22;4268;52.506;13.462;2023-01-19T07:54:11;-2.30;99.90
8463;DHT22;4268;52.506;13.462;2023-01-19T07:56:36;-2.30;99.90
8463;DHT22;4268;52.506;13.462;2023-01-19T07:59:02;-2.30;99.90
8463;DHT22;4268;52.506;13.462;2023-01-19T08:01:27;-2.30;99.90
8463;DHT22;4268;52.506;13.462;2023-01-19T08:03:54;-2.30;99.90
8463;DHT22;4268;52.506;13.462;2023-01-19T08:06:25;-2.20;99.90
8463;DHT22;4268;52.506;13.462;2023-01-19T08:08:52;-2.20;99.90
8463;DHT22;4268;52.506;13.462;2023-01-19T08:11:18;-2.10;99.90
8463;DHT22;4268;52.506;13.462;2023-01-19T08:13:43;-2.10;99.90
8463;DHT22;4268;52.506;13.462;2023-01-19T08:16:09;-2.10;99.90
8463;DHT22;4268;52.506;13.462;2023-01-19T08:18:34;-2.10;99.90
8463;DHT22;4268;52.506;13.462;2023-01-19T08:21:00;-2.10;99.90
8463;DHT22;4268;52.506;13.462;2023-01-19T08:23:26;-2.00;99.90
8463;DHT22;4268;52.506;13.462;2023-01-19T08:25:55;-1.90;99.90
8463;DHT22;4268;52.506;13.462;2023-01-19T08:28:20;-1.80;99.90
8463;DHT22;4268;52.506;13.462;2023-01-19T08:30:47;-1.90;99.90
8463;DHT22;4268;52.506;13.462;2023-01-19T08:33:19;-1.80;99.90
8463;DHT22;4268;52.506;13.462;2023-01-19T08:35:48;-1.70;99.90
8463;DHT22;4268;52.506;13.462;2023-01-19T08:38:14;-1.70;99.90
8463;DHT22;4268;52.506;13.462;2023-01-19T08:40:41;-1.60;99.90
8463;DHT22;4268;52.506;13.462;2023-01-19T08:43:09;-1.60;99.90
8463;DHT22;4268;52.506;13.462;2023-01-19T08:45:36;-1.60;99.90
8463;DHT22;4268;52.506;13.462;2023-01-19T08:48:03;-1.60;99.90
8463;DHT22;4268;52.506;13.462;2023-01-19T08:50:30;-1.50;99.90
8463;DHT22;4268;52.506;13.462;2023-01-19T08:52:57;-1.40;99.90
8463;DHT22;4268;52.506;13.462;2023-01-19T08:55:24;-1.40;99.90
8463;DHT22;4268;52.506;13.462;2023-01-19T08:57:51;-1.40;99.90
8463;DHT22;4268;52.506;13.462;2023-01-19T09:00:18;-1.30;99.90
8463;DHT22;4268;52.506;13.462;2023-01-19T09:02:43;-1.20;99.90
8463;DHT22;4268;52.506;13.462;2023-01-19T09:05:09;-1.20;99.90
8463;DHT22;4268;52.506;13.462;2023-01-19T09:07:34;-1.10;99.90
8463;DHT22;4268;52.506;13.462;2023-01-19T09:10:02;-1.00;99.90
8463;DHT22;4268;52.506;13.462;2023-01-19T09:12:27;-1.10;99.90
8463;DHT22;4268;52.506;13.462;2023-01-19T09:14:53;-1.00;99.90
8463;DHT22;4268;52.506;13.462;2023-01-19T09:17:18;-1.00;99.90
8463;DHT22;4268;52.506;13.462;2023-01-19T09:19:44;0.10;99.90
8463;DHT22;4268;52.506;13.462;2023-01-19T09:22:09;-0.90;99.90
8463;DHT22;4268;52.506;13.462;2023-01-19T09:24:35;-0.90;99.90
8463;DHT22;4268;52.506;13.462;2023-01-19T09:27:01;-0.80;99.90
8463;DHT22;4268;52.506;13.462;2023-01-19T09:29:26;-0.70;99.90
8463;DHT22;4268;52.506;13.462;2023-01-19T09:31:52;-0.80;99.90
8463;DHT22;4268;52.506;13.462;2023-01-19T09:34:17;-0.80;99.90
8463;DHT22;4268;52.506;13.462;2023-01-19T09:36:44;-0.70;99.90
8463;DHT22;4268;52.506;13.462;2023-01-19T09:39:10;-0.60;99.90
8463;DHT22;4268;52.506;13.462;2023-01-19T09:41:36;-0.60;99.90
8463;DHT22;4268;52.506;13.462;2023-01-19T09:44:03;-0.50;99.90
8463;DHT22;4268;52.506;13.462;2023-01-19T09:48:56;-0.50;99.90
8463;DHT22;4268;52.506;13.462;2023-01-19T09:51:27;-0.40;99.90
8463;DHT22;4268;52.506;13.462;2023-01-19T09:53:58;-0.30;99.90
8463;DHT22;4268;52.506;13.462;2023-01-19T09:56:26;-0.30;99.90
8463;DHT22;4268;52.506;13.462;2023-01-19T09:58:52;-0.20;99.90
8463;DHT22;4268;52.506;13.462;2023-01-19T10:03:53;-0.10;99.90
8463;DHT22;4268;52.506;13.462;2023-01-19T10:06:23;-0.10;99.90
8463;DHT22;4268;52.506;13.462;2023-01-19T10:08:59;0.00;99.90
8463;DHT22;4268;52.506;13.462;2023-01-19T10:11:44;0.20;99.90
8463;DHT22;4268;52.506;13.462;2023-01-19T10:14:23;0.10;99.90
8463;DHT22;4268;52.506;13.462;2023-01-19T10:17:06;0.20;99.90
8463;DHT22;4268;52.506;13.462;2023-01-19T10:19:40;-0.10;99.90
8463;DHT22;4268;52.506;13.462;2023-01-19T10:22:19;0.40;99.90
8463;DHT22;4268;52.506;13.462;2023-01-19T10:24:50;0.30;99.90
8463;DHT22;4268;52.506;13.462;2023-01-19T10:27:18;0.00;99.90
8463;DHT22;4268;52.506;13.462;2023-01-19T10:29:45;0.30;99.90
8463;DHT22;4268;52.506;13.462;2023-01-19T10:32:26;0.30;99.90
8463;DHT22;4268;52.506;13.462;2023-01-19T10:34:55;0.40;99.90
8463;DHT22;4268;52.506;13.462;2023-01-19T10:37:52;0.50;99.90
8463;DHT22;4268;52.506;13.462;2023-01-19T10:40:27;0.60;99.90
8463;DHT22;4268;52.506;13.462;2023-01-19T10:42:55;0.60;99.90
8463;DHT22;4268;52.506;13.462;2023-01-19T10:45:24;0.60;99.90
8463;DHT22;4268;52.506;13.462;2023-01-19T10:47:51;0.70;99.90
8463;DHT22;4268;52.506;13.462;2023-01-19T10:50:31;1.00;99.90
8463;DHT22;4268;52.506;13.462;2023-01-19T10:52:59;0.70;99.90
8463;DHT22;4268;52.506;13.462;2023-01-19T10:55:30;0.70;99.90
8463;DHT22;4268;52.506;13.462;2023-01-19T10:57:57;0.70;99.90
8463;DHT22;4268;52.506;13.462;2023-01-19T11:00:35;0.80;99.90
8463;DHT22;4268;52.506;13.462;2023-01-19T11:03:03;0.80;99.90
8463;DHT22;4268;52.506;13.462;2023-01-19T11:05:30;1.00;99.90
8463;DHT22;4268;52.506;13.462;2023-01-19T11:07:57;1.10;99.90
8463;DHT22;4268;52.506;13.462;2023-01-19T11:10:27;1.10;99.90
8463;DHT22;4268;52.506;13.462;2023-01-19T11:13:05;1.20;99.90
8463;DHT22;4268;52.506;13.462;2023-01-19T11:15:56;1.20;99.90
8463;DHT22;4268;52.506;13.462;2023-01-19T11:18:35;1.30;99.90
8463;DHT22;4268;52.506;13.462;2023-01-19T11:21:06;1.30;99.90
8463;DHT22;4268;52.506;13.462;2023-01-19T11:23:38;1.40;99.90
8463;DHT22;4268;52.506;13.462;2023-01-19T11:28:51;1.40;99.90
8463;DHT22;4268;52.506;13.462;2023-01-19T11:33:59;1.40;99.90
8463;DHT22;4268;52.506;13.462;2023-01-19T11:36:28;1.50;99.90
8463;DHT22;4268;52.506;13.462;2023-01-19T11:38:59;1.60;99.90
8463;DHT22;4268;52.506;13.462;2023-01-19T11:41:28;1.60;99.90
8463;DHT22;4268;52.506;13.462;2023-01-19T11:44:13;1.70;99.90
8463;DHT22;4268;52.506;13.462;2023-01-19T11:46:43;1.70;99.90
8463;DHT22;4268;52.506;13.462;2023-01-19T11:49:22;1.70;99.90
8463;DHT22;4268;52.506;13.462;2023-01-19T11:52:03;1.60;99.90
8463;DHT22;4268;52.506;13.462;2023-01-19T11:54:34;1.60;99.90
8463;DHT22;4268;52.506;13.462;2023-01-19T11:57:09;1.60;99.90
8463;DHT22;4268;52.506;13.462;2023-01-19T11:59:36;1.60;99.90
8463;DHT22;4268;52.506;13.462;2023-01-19T12:02:09;1.60;99.90
8463;DHT22;4268;52.506;13.462;2023-01-19T12:04:39;1.70;99.90
8463;DHT22;4268;52.506;13.462;2023-01-19T12:07:07;1.70;99.90
8463;DHT22;4268;52.506;13.462;2023-01-19T12:10:05;1.80;99.90
8463;DHT22;4268;52.506;13.462;2023-01-19T12:12:33;1.80;99.90
8463;DHT22;4268;52.506;13.462;2023-01-19T12:15:27;1.80;99.90
8463;DHT22;4268;52.506;13.462;2023-01-19T12:17:57;1.80;99.90
8463;DHT22;4268;52.506;13.462;2023-01-19T12:25:56;1.90;99.90
8463;DHT22;4268;52.506;13.462;2023-01-19T12:28:37;1.90;99.90
8463;DHT22;4268;52.506;13.462;2023-01-19T12:31:05;1.90;99.90
8463;DHT22;4268;52.506;13.462;2023-01-19T12:33:33;2.00;99.90
8463;DHT22;4268;52.506;13.462;2023-01-19T12:36:01;1.90;99.90
8463;DHT22;4268;52.506;13.462;2023-01-19T12:41:27;1.90;99.90
8463;DHT22;4268;52.506;13.462;2023-01-19T12:44:23;1.90;99.90
8463;DHT22;4268;52.506;13.462;2023-01-19T12:46:56;1.90;99.90
8463;DHT22;4268;52.506;13.462;2023-01-19T12:49:34;1.90;99.90
8463;DHT22;4268;52.506;13.462;2023-01-19T12:52:20;2.00;99.90
8463;DHT22;4268;52.506;13.462;2023-01-19T12:55:39;2.00;99.90
8463;DHT22;4268;52.506;13.462;2023-01-19T12:58:00;2.00;99.90
8463;DHT22;4268;52.506;13.462;2023-01-19T13:05:52;2.00;99.90
8463;DHT22;4268;52.506;13.462;2023-01-19T13:08:20;2.00;99.90
8463;DHT22;4268;52.506;13.462;2023-01-19T13:13:31;2.00;99.90
8463;DHT22;4268;52.506;13.462;2023-01-19T13:21:44;1.90;99.90
8463;DHT22;4268;52.506;13.462;2023-01-19T13:24:14;1.90;99.90
8463;DHT22;4268;52.506;13.462;2023-01-19T13:26:54;1.90;99.90
8463;DHT22;4268;52.506;13.462;2023-01-19T13:29:34;1.90;99.90
8463;DHT22;4268;52.506;13.462;2023-01-19T13:32:04;1.90;99.90
8463;DHT22;4268;52.506;13.462;2023-01-19T13:34:43;1.90;99.90
8463;DHT22;4268;52.506;13.462;2023-01-19T13:37:18;1.90;99.90
8463;DHT22;4268;52.506;13.462;2023-01-19T13:39:45;1.80;99.90
8463;DHT22;4268;52.506;13.462;2023-01-19T13:42:33;1.70;99.90
8463;DHT22;4268;52.506;13.462;2023-01-19T13:45:05;1.70;99.90
8463;DHT22;4268;52.506;13.462;2023-01-19T13:47:40;1.70;99.90
8463;DHT22;4268;52.506;13.462;2023-01-19T13:50:21;1.70;99.90
8463;DHT22;4268;52.506;13.462;2023-01-19T13:52:47;1.60;99.90
8463;DHT22;4268;52.506;13.462;2023-01-19T13:55:15;1.60;99.90
8463;DHT22;4268;52.506;13.462;2023-01-19T13:57:42;1.60;99.90
8463;DHT22;4268;52.506;13.462;2023-01-19T14:02:56;1.60;99.90
8463;DHT22;4268;52.506;13.462;2023-01-19T14:05:26;1.60;99.90
8463;DHT22;4268;52.506;13.462;2023-01-19T14:08:03;1.50;99.90
8463;DHT22;4268;52.506;13.462;2023-01-19T14:10:30;1.50;99.90
8463;DHT22;4268;52.506;13.462;2023-01-19T14:13:04;1.50;99.90
8463;DHT22;4268;52.506;13.462;2023-01-19T14:15:32;1.50;99.90
8463;DHT22;4268;52.506;13.462;2023-01-19T14:23:44;1.40;99.90
8463;DHT22;4268;52.506;13.462;2023-01-19T14:26:48;1.40;99.90
8463;DHT22;4268;52.506;13.462;2023-01-19T14:29:18;1.30;99.90
8463;DHT22;4268;52.506;13.462;2023-01-19T14:32:03;1.30;99.90
8463;DHT22;4268;52.506;13.462;2023-01-19T14:37:03;1.30;99.90
8463;DHT22;4268;52.506;13.462;2023-01-19T14:39:32;1.30;99.90
8463;DHT22;4268;52.506;13.462;2023-01-19T14:42:00;1.30;99.90
8463;DHT22;4268;52.506;13.462;2023-01-19T14:44:30;1.20;99.90
8463;DHT22;4268;52.506;13.462;2023-01-19T14:46:56;1.20;99.90
8463;DHT22;4268;52.506;13.462;2023-01-19T14:49:40;1.20;99.90
8463;DHT22;4268;52.506;13.462;2023-01-19T14:52:20;1.20;99.90
8463;DHT22;4268;52.506;13.462;2023-01-19T14:54:47;1.20;99.90
8463;DHT22;4268;52.506;13.462;2023-01-19T14:57:14;1.10;99.90
8463;DHT22;4268;52.506;13.462;2023-01-19T14:59:40;1.00;99.90
8463;DHT22;4268;52.506;13.462;2023-01-19T15:02:07;1.10;99.90
8463;DHT22;4268;52.506;13.462;2023-01-19T15:04:33;1.10;99.90
8463;DHT22;4268;52.506;13.462;2023-01-19T15:06:58;1.10;99.90
8463;DHT22;4268;52.506;13.462;2023-01-19T15:09:24;1.10;99.90
8463;DHT22;4268;52.506;13.462;2023-01-19T15:11:50;1.00;99.90
8463;DHT22;4268;52.506;13.462;2023-01-19T15:14:18;1.00;99.90
8463;DHT22;4268;52.506;13.462;2023-01-19T15:16:44;1.00;99.90
8463;DHT22;4268;52.506;13.462;2023-01-19T15:19:12;0.90;99.90
8463;DHT22;4268;52.506;13.462;2023-01-19T15:21:37;0.90;99.90
8463;DHT22;4268;52.506;13.462;2023-01-19T15:24:07;0.90;99.90
8463;DHT22;4268;52.506;13.462;2023-01-19T15:26:32;0.90;99.90
8463;DHT22;4268;52.506;13.462;2023-01-19T15:28:58;0.80;99.90
8463;DHT22;4268;52.506;13.462;2023-01-19T15:31:24;0.80;99.90
8463;DHT22;4268;52.506;13.462;2023-01-19T15:33:50;0.80;99.90
8463;DHT22;4268;52.506;13.462;2023-01-19T15:36:17;0.80;99.90
8463;DHT22;4268;52.506;13.462;2023-01-19T15:38:45;0.80;99.90
8463;DHT22;4268;52.506;13.462;2023-01-19T15:41:27;0.70;99.90
8463;DHT22;4268;52.506;13.462;2023-01-19T15:43:54;0.70;99.90
8463;DHT22;4268;52.506;13.462;2023-01-19T15:46:20;0.70;99.90
8463;DHT22;4268;52.506;13.462;2023-01-19T15:48:47;0.70;99.90
8463;DHT22;4268;52.506;13.462;2023-01-19T15:51:14;0.70;99.90
8463;DHT22;4268;52.506;13.462;2023-01-19T15:53:40;0.70;99.90
8463;DHT22;4268;52.506;13.462;2023-01-19T15:56:14;0.90;99.90
8463;DHT22;4268;52.506;13.462;2023-01-19T15:58:40;0.80;99.90
8463;DHT22;4268;52.506;13.462;2023-01-19T16:01:12;0.80;99.90
8463;DHT22;4268;52.506;13.462;2023-01-19T16:03:38;0.90;99.90
8463;DHT22;4268;52.506;13.462;2023-01-19T16:06:04;0.90;99.90
8463;DHT22;4268;52.506;13.462;2023-01-19T16:08:29;0.90;99.90
8463;DHT22;4268;52.506;13.462;2023-01-19T16:10:55;0.90;99.90
8463;DHT22;4268;52.506;13.462;2023-01-19T16:13:20;1.00;99.90
8463;DHT22;4268;52.506;13.462;2023-01-19T16:15:46;0.90;99.90
8463;DHT22;4268;52.506;13.462;2023-01-19T16:18:11;0.90;99.90
8463;DHT22;4268;52.506;13.462;2023-01-19T16:20:36;0.90;99.90
8463;DHT22;4268;52.506;13.462;2023-01-19T16:23:02;0.90;99.90
8463;DHT22;4268;52.506;13.462;2023-01-19T16:25:28;0.80;99.90
8463;DHT22;4268;52.506;13.462;2023-01-19T16:27:55;0.80;99.90
8463;DHT22;4268;52.506;13.462;2023-01-19T16:30:21;0.80;99.90
8463;DHT22;4268;52.506;13.462;2023-01-19T16:32:46;0.80;99.90
8463;DHT22;4268;52.506;13.462;2023-01-19T16:35:12;0.70;99.90
8463;DHT22;4268;52.506;13.462;2023-01-19T16:37:40;0.60;99.90
8463;DHT22;4268;52.506;13.462;2023-01-19T16:40:06;0.50;99.90
8463;DHT22;4268;52.506;13.462;2023-01-19T16:42:32;0.60;99.90
8463;DHT22;4268;52.506;13.462;2023-01-19T16:44:57;0.60;99.90
8463;DHT22;4268;52.506;13.462;2023-01-19T16:47:23;0.50;99.90
8463;DHT22;4268;52.506;13.462;2023-01-19T16:49:48;0.60;99.90
8463;DHT22;4268;52.506;13.462;2023-01-19T16:52:14;0.70;99.90
8463;DHT22;4268;52.506;13.462;2023-01-19T16:54:41;0.70;99.90